• Join FlightAware (Why Join?)
  • Login
  • US Flag 
09:57PM EST


 

Airport Tracker/Info


-or-


 

Live Flight TrackerFlight Track Log ✈ OPT445 ✈ 06-Apr-2012 ✈ KAGS - KSGR

Flight Track Log - Related Links

Times and Time Zones

All times are in EDT time to prevent confusion due to time zone crossing. See the OPT445 flight status page for this flight to view local times or setup timezone preferences in your user account.

Time Position Orientation Groundspeed Altitude Reporting Facility
EDT Latitude Longitude Course Direction KTS MPH feet Rate Location/Type
08:32PM 33.3379 -82.1028 258° West  Level FlightAware Approximate
08:33PM 33.3094 -82.2124 262° West  Level FlightAware Approximate
08:34PM 33.2910 -82.3241 269° West  Level FlightAware Approximate
08:35PM 33.2903 -82.3739 257° West 315 362 10,400  Level Atlanta Center
08:36PM 33.2708 -82.4761 259° West 315 362 12,100 1,800 Climbing Atlanta Center
08:37PM 33.2533 -82.5856 258° West 320 368 14,100 1,860 Climbing Atlanta Center
08:38PM 33.2336 -82.6953 259° West 331 381 15,900 1,800 Climbing Atlanta Center
08:39PM 33.2142 -82.8097 258° West 342 394 17,800 1,860 Climbing Atlanta Center
08:40PM 33.1942 -82.9217 262° West 347 399 19,700 1,800 Climbing Atlanta Center
08:41PM 33.1825 -83.0211 259° West 347 399 21,500 1,740 Climbing Atlanta Center
08:42PM 33.1647 -83.1306 260° West 347 399 23,200 1,680 Climbing Atlanta Center
08:43PM 33.1489 -83.2425 253° West 340 391 24,900 1,500 Climbing Atlanta Center
08:44PM 33.1203 -83.3542 250° West 346 398 26,200 1,140 Climbing Atlanta Center
08:45PM 33.0833 -83.4761 253° West 346 398 27,200 960 Climbing Atlanta Center
08:46PM 33.0525 -83.5978 250° West 370 426 28,200 960 Climbing Atlanta Center
08:47PM 33.0153 -83.7217 250° West 382 440 29,200 960 Climbing Atlanta Center
08:48PM 32.9781 -83.8433 250° West 387 445 30,200 1,440 Climbing Atlanta Center
08:49PM 32.9425 -83.9622 252° West 387 445 32,100 1,800 Climbing Atlanta Center
08:50PM 32.9114 -84.0733 250° West 375 432 33,800 1,380 Climbing Atlanta Center
08:51PM 32.8778 -84.1847 250° West 369 425 34,900 1,020 Climbing Atlanta Center
08:52PM 32.8483 -84.2811 251° West 358 412 35,900 960 Climbing Atlanta Center
08:53PM 32.8169 -84.3872 251° West 344 396 36,900 780 Climbing Atlanta Center
08:54PM 32.7831 -84.5058 250° West 349 402 37,500 540 Climbing Atlanta Center
08:55PM 32.7514 -84.6119 250° West 349 402 38,000 420 Climbing Atlanta Center
08:56PM 32.7175 -84.7203 251° West 349 402 38,400 420 Climbing Atlanta Center
08:57PM 32.6856 -84.8286 247° West 349 402 38,900 420 Climbing Atlanta Center
08:58PM 32.6514 -84.9219 255° West 343 395 39,300 420 Climbing Atlanta Center
08:59PM 32.6233 -85.0450 248° West 348 400 39,800 300 Climbing Atlanta Center
09:00PM 32.5869 -85.1506 250° West 354 407 40,000 60 Climbing Atlanta Center
09:01PM 32.5525 -85.2611 251° West 354 407 40,000  Level Atlanta Center
09:02PM 32.5181 -85.3764 248° West 365 420 40,000  Level Atlanta Center
09:03PM 32.4792 -85.4917 251° West 370 426 40,000  Level Atlanta Center
09:04PM 32.4464 -85.6042 250° West 370 426 40,000  Level Atlanta Center
09:05PM 32.4092 -85.7242 249° West 380 437 40,000  Level Atlanta Center
09:06PM 32.3700 -85.8464 250° West 386 444 40,000  Level Atlanta Center
09:07PM 32.3328 -85.9661 249° West 393 452 40,000  Level Atlanta Center
09:08PM 32.2933 -86.0856 250° West 393 452 40,000  Level Atlanta Center
09:09PM 32.2578 -86.2028 249° West 388 447 40,000  Level Atlanta Center
09:10PM 32.2181 -86.3219 255° West 393 452 40,000  Level Atlanta Center
09:11PM 32.1908 -86.4439 253° West 387 445 40,000  Level Atlanta Center
09:12PM 32.1592 -86.5658 253° West 387 445 40,000  Level Atlanta Center
09:13PM 32.1294 -86.6828 253° West 381 438 40,000  Level Atlanta Center
09:14PM 32.0975 -86.8044 252° West 376 433 40,000  Level Atlanta Center
09:15PM 32.0656 -86.9233 254° West 376 433 40,000  Level Atlanta Center
09:16PM 32.0403 -87.0306 252° West 381 438 40,000  Level Atlanta Center
09:17PM 32.0081 -87.1494 253° West 381 438 40,000  Level Atlanta Center
09:18PM 31.9778 -87.2683 254° West 381 438 40,000  Level Atlanta Center
09:19PM 31.9497 -87.3847 252° West 376 433 40,000  Level Atlanta Center
09:20PM 31.9172 -87.5058 251° West 376 433 40,000  Level Atlanta Center
09:21PM 31.8825 -87.6219 253° West 381 438 40,000  Level Atlanta Center
09:22PM 31.8519 -87.7428 253° West 381 438 40,000  Level Atlanta Center
09:25PM 31.7756 -88.0311 254° West 383 441 40,000  Level Memphis Center
09:26PM 31.7464 -88.1517 252° West 389 448 40,000  Level Memphis Center
09:27PM 31.7089 -88.2867 253° West 389 448 40,000  Level Memphis Center
09:28PM 31.6775 -88.4069 252° West 389 448 40,000  Level Memphis Center
09:30PM 31.5950 -88.7006 252° West 390 449 40,000  Level Houston Center
09:31PM 31.5622 -88.8183 254° West 390 449 40,000  Level Houston Center
09:32PM 31.5314 -88.9411 250° West 390 449 40,000  Level Houston Center
09:33PM 31.4939 -89.0589 253° West 390 449 40,000  Level Houston Center
09:34PM 31.4628 -89.1789 252° West 390 449 40,000  Level Houston Center
09:35PM 31.4294 -89.2967 261° West 390 449 40,000  Level Houston Center
09:36PM 31.4128 -89.4186 269° West 385 443 40,000  Level Houston Center
09:37PM 31.4106 -89.5403 260° West 379 436 40,000  Level Houston Center
09:38PM 31.3917 -89.6622 260° West 379 436 40,000  Level Houston Center
09:39PM 31.3725 -89.7867 257° West 379 436 40,000  Level Houston Center
09:40PM 31.3492 -89.9061 259° West 379 436 40,000  Level Houston Center
09:41PM 31.3297 -90.0256 259° West 384 442 40,000  Level Houston Center
09:42PM 31.3103 -90.1472 259° West 384 442 40,000  Level Houston Center
09:43PM 31.2908 -90.2642 258° West 384 442 40,000  Level Houston Center
09:44PM 31.2689 -90.3836 260° West 384 442 40,000  Level Houston Center
09:45PM 31.2533 -90.4906 258° West 378 435 40,000  Level Houston Center
09:46PM 31.2314 -90.6097 259° West 373 429 40,000  Level Houston Center
09:47PM 31.2114 -90.7267 258° West 373 429 40,000  Level Houston Center
09:48PM 31.1892 -90.8456 259° West 373 429 40,000  Level Houston Center
09:49PM 31.1689 -90.9647 259° West 373 429 40,000  Level Houston Center
09:50PM 31.1486 -91.0836 259° West 373 429 40,000  Level Houston Center
09:51PM 31.1281 -91.2028 258° West 378 435 40,000  Level Houston Center
09:52PM 31.1056 -91.3217 257° West 378 435 40,000  Level Houston Center
09:53PM 31.0808 -91.4503 258° West 373 429 40,000  Level Houston Center
09:54PM 31.0600 -91.5689 257° West 373 429 40,000  Level Houston Center
09:55PM 31.0372 -91.6878 259° West 373 429 40,000  Level Houston Center
09:56PM 31.0161 -91.8089 258° West 373 429 40,000  Level Houston Center
09:57PM 30.9953 -91.9275 257° West 373 429 40,000  Level Houston Center
09:58PM 30.9719 -92.0436 258° West 373 429 40,000  Level Houston Center
09:59PM 30.9506 -92.1647 258° West 373 429 40,000  Level Houston Center
10:00PM 30.9292 -92.2831 257° West 373 429 40,000  Level Houston Center
10:01PM 30.9058 -92.4039 258° West 373 429 40,000  Level Houston Center
10:02PM 30.8842 -92.5222 257° West 373 429 40,000  Level Houston Center
10:03PM 30.8603 -92.6431 258° West 373 429 40,000  Level Houston Center
10:04PM 30.8386 -92.7639 257° West 373 429 40,000 -720 Level Houston Center
10:05PM 30.8147 -92.8844 260° West 373 429 38,600 -1,620 Descending Houston Center
10:06PM 30.7989 -92.9906 259° West 378 435 36,900 -1,860 Descending Houston Center
10:07PM 30.7792 -93.1039 257° West 372 428 34,900 -1,920 Descending Houston Center
10:08PM 30.7547 -93.2244 257° West 367 422 33,000 -1,020 Descending Houston Center
10:09PM 30.7325 -93.3328 257° West 357 411 33,000  Level Houston Center
10:10PM 30.7103 -93.4483 258° West 357 411 33,000  Level Houston Center
10:11PM 30.6878 -93.5711 257° West 368 423 33,000 -720 Level Houston Center
10:12PM 30.6650 -93.6889 256° West 379 436 31,600 -1,500 Descending Houston Center
10:13PM 30.6381 -93.8139 257° West 385 443 30,100 -1,380 Descending Houston Center
10:14PM 30.6153 -93.9317 257° West 385 443 29,000 -1,680 Descending Houston Center
10:15PM 30.5903 -94.0564 256° West 391 450 26,800 -2,400 Descending Houston Center
10:16PM 30.5628 -94.1861 256° West 397 457 24,200 -2,460 Descending Houston Center
10:17PM 30.5353 -94.3181 257° West 412 474 22,000 -2,160 Descending Houston Center
10:18PM 30.5097 -94.4475 248° West 417 480 19,900 -2,100 Descending Houston Center
10:19PM 30.4808 -94.5308 236° Southwest 388 447 18,300 -1,980 Descending Houston Center
10:20PM 30.4158 -94.6422 233° Southwest 378 435 16,400 -2,040 Descending Houston Center
10:21PM 30.3553 -94.7367 232° Southwest 372 428 14,200 -1,980 Descending Houston Center
10:22PM 30.2969 -94.8239 234° Southwest 331 381 12,400 -1,440 Descending Houston Center
10:23PM 30.2383 -94.9158 233° Southwest 348 400 11,100 -660 Descending Houston Center
10:24PM 30.1842 -94.9983 229° Southwest 329 379 11,100 -420 Level Houston Center
10:25PM 30.1258 -95.0756 200° South 337 388 10,400 -540 Descending Houston Center
10:26PM 30.0331 -95.1156 200° South 329 379 10,100 -180 Descending Houston Center
10:27PM 29.9403 -95.1556 201° Southwest 327 376 10,100 -60 Level Houston Center
10:28PM 29.8642 -95.1889 201° Southwest 327 376 10,000 -60 Descending Houston Center
10:29PM 29.7986 -95.2181 197° South 310 357 10,000 -1,140 Level Houston Center
10:30PM 29.7103 -95.2483 224° Southwest 303 349 7,800 -2,040 Descending Houston Center
10:31PM 29.6564 -95.3086 247° West 268 308 5,500 -2,100 Descending Houston Center
10:32PM 29.6294 -95.3817 271° West 253 291 4,000 -1,140 Descending Houston Center
10:33PM 29.6311 -95.4725 287° West 258 297 3,300 -840 Descending Houston Center
10:34PM 29.6519 -95.5497 296° West 245 282 2,300 -780 Descending Houston Center
10:35PM 29.6792 -95.6131 259° West 202 232 1,800 -600 Descending Houston Center
10:36PM 29.6717 -95.6581 259° West 130 150 1,100 -720 Descending Houston Center